sensor_id;sensor_type;location;lat;lon;timestamp;P1;durP1;ratioP1;P2;durP2;ratioP2
5363;SDS011;2705;41.410;2.160;2022-09-02T00:01:37;16.53;;;9.83;;
5363;SDS011;2705;41.410;2.160;2022-09-02T00:04:08;22.03;;;11.10;;
5363;SDS011;2705;41.410;2.160;2022-09-02T00:06:39;18.83;;;9.90;;
5363;SDS011;2705;41.410;2.160;2022-09-02T00:09:10;19.47;;;10.90;;
5363;SDS011;2705;41.410;2.160;2022-09-02T00:11:42;18.63;;;10.80;;
5363;SDS011;2705;41.410;2.160;2022-09-02T00:14:14;16.83;;;11.20;;
5363;SDS011;2705;41.410;2.160;2022-09-02T00:16:45;20.13;;;10.23;;
5363;SDS011;2705;41.410;2.160;2022-09-02T00:19:18;20.13;;;10.80;;
5363;SDS011;2705;41.410;2.160;2022-09-02T00:21:50;17.03;;;9.80;;
5363;SDS011;2705;41.410;2.160;2022-09-02T00:24:20;23.20;;;10.33;;
5363;SDS011;2705;41.410;2.160;2022-09-02T00:26:52;14.03;;;10.00;;
5363;SDS011;2705;41.410;2.160;2022-09-02T00:29:22;15.50;;;10.07;;
5363;SDS011;2705;41.410;2.160;2022-09-02T00:31:52;17.47;;;10.97;;
5363;SDS011;2705;41.410;2.160;2022-09-02T00:34:21;15.73;;;11.13;;
5363;SDS011;2705;41.410;2.160;2022-09-02T00:36:50;15.63;;;10.20;;
5363;SDS011;2705;41.410;2.160;2022-09-02T00:39:20;18.43;;;10.30;;
5363;SDS011;2705;41.410;2.160;2022-09-02T00:41:49;17.40;;;10.77;;
5363;SDS011;2705;41.410;2.160;2022-09-02T00:44:21;18.50;;;10.53;;
5363;SDS011;2705;41.410;2.160;2022-09-02T00:46:50;14.57;;;10.20;;
5363;SDS011;2705;41.410;2.160;2022-09-02T00:49:20;20.53;;;10.37;;
5363;SDS011;2705;41.410;2.160;2022-09-02T00:51:53;20.93;;;10.17;;
5363;SDS011;2705;41.410;2.160;2022-09-02T00:54:26;20.77;;;9.70;;
5363;SDS011;2705;41.410;2.160;2022-09-02T00:56:59;22.83;;;11.10;;
5363;SDS011;2705;41.410;2.160;2022-09-02T00:59:33;17.60;;;9.13;;
5363;SDS011;2705;41.410;2.160;2022-09-02T01:02:10;14.43;;;10.00;;
5363;SDS011;2705;41.410;2.160;2022-09-02T01:04:40;17.80;;;10.83;;
5363;SDS011;2705;41.410;2.160;2022-09-02T01:07:13;21.17;;;11.40;;
5363;SDS011;2705;41.410;2.160;2022-09-02T01:09:42;21.73;;;10.73;;
5363;SDS011;2705;41.410;2.160;2022-09-02T01:12:11;14.47;;;10.77;;
5363;SDS011;2705;41.410;2.160;2022-09-02T01:14:43;16.77;;;10.90;;
5363;SDS011;2705;41.410;2.160;2022-09-02T01:17:12;16.20;;;10.30;;
5363;SDS011;2705;41.410;2.160;2022-09-02T01:19:44;15.73;;;10.70;;
5363;SDS011;2705;41.410;2.160;2022-09-02T01:22:18;13.50;;;10.13;;
5363;SDS011;2705;41.410;2.160;2022-09-02T01:24:49;15.73;;;10.40;;
5363;SDS011;2705;41.410;2.160;2022-09-02T01:27:19;15.20;;;9.10;;
5363;SDS011;2705;41.410;2.160;2022-09-02T01:29:50;16.13;;;9.50;;
5363;SDS011;2705;41.410;2.160;2022-09-02T01:32:21;21.97;;;9.87;;
5363;SDS011;2705;41.410;2.160;2022-09-02T01:34:51;17.07;;;9.73;;
5363;SDS011;2705;41.410;2.160;2022-09-02T01:37:21;15.20;;;9.30;;
5363;SDS011;2705;41.410;2.160;2022-09-02T01:39:51;15.27;;;9.40;;
5363;SDS011;2705;41.410;2.160;2022-09-02T01:42:21;12.70;;;8.50;;
5363;SDS011;2705;41.410;2.160;2022-09-02T01:44:51;11.57;;;7.20;;
5363;SDS011;2705;41.410;2.160;2022-09-02T01:47:22;15.30;;;8.20;;
5363;SDS011;2705;41.410;2.160;2022-09-02T01:49:52;19.20;;;8.10;;
5363;SDS011;2705;41.410;2.160;2022-09-02T01:52:23;14.87;;;7.53;;
5363;SDS011;2705;41.410;2.160;2022-09-02T01:54:55;13.20;;;8.20;;
5363;SDS011;2705;41.410;2.160;2022-09-02T01:57:24;10.70;;;7.10;;
5363;SDS011;2705;41.410;2.160;2022-09-02T01:59:53;10.77;;;7.07;;
5363;SDS011;2705;41.410;2.160;2022-09-02T02:02:22;10.23;;;6.93;;
5363;SDS011;2705;41.410;2.160;2022-09-02T02:04:52;14.10;;;8.23;;
5363;SDS011;2705;41.410;2.160;2022-09-02T02:07:24;10.63;;;6.97;;
5363;SDS011;2705;41.410;2.160;2022-09-02T02:09:53;10.80;;;7.07;;
5363;SDS011;2705;41.410;2.160;2022-09-02T02:12:23;11.90;;;6.83;;
5363;SDS011;2705;41.410;2.160;2022-09-02T02:14:53;14.00;;;7.00;;
5363;SDS011;2705;41.410;2.160;2022-09-02T02:17:22;14.83;;;6.40;;
5363;SDS011;2705;41.410;2.160;2022-09-02T02:19:51;10.60;;;6.30;;
5363;SDS011;2705;41.410;2.160;2022-09-02T02:22:20;12.27;;;6.50;;
5363;SDS011;2705;41.410;2.160;2022-09-02T02:24:50;14.60;;;6.90;;
5363;SDS011;2705;41.410;2.160;2022-09-02T02:27:19;12.10;;;6.10;;
5363;SDS011;2705;41.410;2.160;2022-09-02T02:29:49;12.67;;;7.27;;
5363;SDS011;2705;41.410;2.160;2022-09-02T02:32:21;16.60;;;6.47;;
5363;SDS011;2705;41.410;2.160;2022-09-02T02:34:53;7.97;;;5.70;;
5363;SDS011;2705;41.410;2.160;2022-09-02T02:37:22;12.63;;;6.17;;
5363;SDS011;2705;41.410;2.160;2022-09-02T02:39:53;11.37;;;6.20;;
5363;SDS011;2705;41.410;2.160;2022-09-02T02:42:26;11.40;;;5.50;;
5363;SDS011;2705;41.410;2.160;2022-09-02T02:44:55;11.50;;;5.83;;
5363;SDS011;2705;41.410;2.160;2022-09-02T02:47:24;14.03;;;6.33;;
5363;SDS011;2705;41.410;2.160;2022-09-02T02:49:53;13.47;;;5.63;;
5363;SDS011;2705;41.410;2.160;2022-09-02T02:52:22;9.63;;;5.50;;
5363;SDS011;2705;41.410;2.160;2022-09-02T02:54:53;9.63;;;5.60;;
5363;SDS011;2705;41.410;2.160;2022-09-02T02:57:22;13.07;;;5.83;;
5363;SDS011;2705;41.410;2.160;2022-09-02T02:59:51;18.23;;;7.63;;
5363;SDS011;2705;41.410;2.160;2022-09-02T03:02:20;11.87;;;6.97;;
5363;SDS011;2705;41.410;2.160;2022-09-02T03:04:49;7.60;;;5.93;;
5363;SDS011;2705;41.410;2.160;2022-09-02T03:07:21;12.50;;;6.53;;
5363;SDS011;2705;41.410;2.160;2022-09-02T03:09:50;17.30;;;6.33;;
5363;SDS011;2705;41.410;2.160;2022-09-02T03:12:21;10.67;;;6.57;;
5363;SDS011;2705;41.410;2.160;2022-09-02T03:14:51;7.50;;;5.80;;
5363;SDS011;2705;41.410;2.160;2022-09-02T03:17:20;10.73;;;6.40;;
5363;SDS011;2705;41.410;2.160;2022-09-02T03:19:49;9.27;;;6.27;;
5363;SDS011;2705;41.410;2.160;2022-09-02T03:22:18;11.83;;;6.70;;
5363;SDS011;2705;41.410;2.160;2022-09-02T03:24:47;10.73;;;6.70;;
5363;SDS011;2705;41.410;2.160;2022-09-02T03:27:17;10.70;;;6.83;;
5363;SDS011;2705;41.410;2.160;2022-09-02T03:29:47;12.40;;;6.37;;
5363;SDS011;2705;41.410;2.160;2022-09-02T03:32:16;13.63;;;6.47;;
5363;SDS011;2705;41.410;2.160;2022-09-02T03:34:45;11.00;;;5.90;;
5363;SDS011;2705;41.410;2.160;2022-09-02T03:37:15;12.93;;;8.53;;
5363;SDS011;2705;41.410;2.160;2022-09-02T03:39:45;15.73;;;6.90;;
5363;SDS011;2705;41.410;2.160;2022-09-02T03:42:14;10.73;;;6.40;;
5363;SDS011;2705;41.410;2.160;2022-09-02T03:44:49;10.30;;;6.33;;
5363;SDS011;2705;41.410;2.160;2022-09-02T03:47:19;12.83;;;6.00;;
5363;SDS011;2705;41.410;2.160;2022-09-02T03:50:10;11.50;;;6.47;;
5363;SDS011;2705;41.410;2.160;2022-09-02T03:52:39;13.47;;;6.77;;
5363;SDS011;2705;41.410;2.160;2022-09-02T03:55:08;14.17;;;6.80;;
5363;SDS011;2705;41.410;2.160;2022-09-02T03:57:38;13.03;;;6.50;;
5363;SDS011;2705;41.410;2.160;2022-09-02T04:00:10;15.87;;;6.70;;
5363;SDS011;2705;41.410;2.160;2022-09-02T04:02:43;10.47;;;6.20;;
5363;SDS011;2705;41.410;2.160;2022-09-02T04:05:17;9.83;;;6.00;;
5363;SDS011;2705;41.410;2.160;2022-09-02T04:07:50;12.50;;;6.30;;
5363;SDS011;2705;41.410;2.160;2022-09-02T04:10:20;17.47;;;7.10;;
5363;SDS011;2705;41.410;2.160;2022-09-02T04:12:50;14.60;;;6.60;;
5363;SDS011;2705;41.410;2.160;2022-09-02T04:15:21;13.93;;;6.50;;
5363;SDS011;2705;41.410;2.160;2022-09-02T04:17:51;16.70;;;6.13;;
5363;SDS011;2705;41.410;2.160;2022-09-02T04:20:20;19.07;;;6.40;;
5363;SDS011;2705;41.410;2.160;2022-09-02T04:22:49;15.50;;;5.80;;
5363;SDS011;2705;41.410;2.160;2022-09-02T04:25:19;13.60;;;6.50;;
5363;SDS011;2705;41.410;2.160;2022-09-02T04:27:54;18.80;;;6.90;;
5363;SDS011;2705;41.410;2.160;2022-09-02T04:30:24;18.90;;;6.10;;
5363;SDS011;2705;41.410;2.160;2022-09-02T04:32:53;16.70;;;6.40;;
5363;SDS011;2705;41.410;2.160;2022-09-02T04:35:22;19.83;;;6.80;;
5363;SDS011;2705;41.410;2.160;2022-09-02T04:37:51;14.10;;;7.00;;
5363;SDS011;2705;41.410;2.160;2022-09-02T04:40:20;11.27;;;6.57;;
5363;SDS011;2705;41.410;2.160;2022-09-02T04:42:51;17.23;;;7.83;;
5363;SDS011;2705;41.410;2.160;2022-09-02T04:45:22;13.20;;;6.93;;
5363;SDS011;2705;41.410;2.160;2022-09-02T04:47:56;17.20;;;7.40;;
5363;SDS011;2705;41.410;2.160;2022-09-02T04:50:25;13.57;;;7.10;;
5363;SDS011;2705;41.410;2.160;2022-09-02T04:52:58;18.20;;;7.37;;
5363;SDS011;2705;41.410;2.160;2022-09-02T04:55:29;22.90;;;8.00;;
5363;SDS011;2705;41.410;2.160;2022-09-02T04:57:58;14.10;;;7.37;;
5363;SDS011;2705;41.410;2.160;2022-09-02T05:00:29;19.30;;;8.20;;
5363;SDS011;2705;41.410;2.160;2022-09-02T05:02:58;19.80;;;8.10;;
5363;SDS011;2705;41.410;2.160;2022-09-02T05:05:29;24.33;;;9.27;;
5363;SDS011;2705;41.410;2.160;2022-09-02T05:07:58;19.50;;;8.80;;
5363;SDS011;2705;41.410;2.160;2022-09-02T05:10:30;19.00;;;8.77;;
5363;SDS011;2705;41.410;2.160;2022-09-02T05:13:00;19.50;;;7.93;;
5363;SDS011;2705;41.410;2.160;2022-09-02T05:15:30;18.43;;;8.00;;
5363;SDS011;2705;41.410;2.160;2022-09-02T05:18:00;21.97;;;7.30;;
5363;SDS011;2705;41.410;2.160;2022-09-02T05:20:31;20.97;;;7.50;;
5363;SDS011;2705;41.410;2.160;2022-09-02T05:23:00;26.77;;;7.90;;
5363;SDS011;2705;41.410;2.160;2022-09-02T05:25:29;17.63;;;7.50;;
5363;SDS011;2705;41.410;2.160;2022-09-02T05:27:58;21.17;;;7.70;;
5363;SDS011;2705;41.410;2.160;2022-09-02T05:30:27;13.33;;;6.63;;
5363;SDS011;2705;41.410;2.160;2022-09-02T05:33:00;29.13;;;7.43;;
5363;SDS011;2705;41.410;2.160;2022-09-02T05:35:30;18.90;;;7.10;;
5363;SDS011;2705;41.410;2.160;2022-09-02T05:38:03;19.03;;;7.10;;
5363;SDS011;2705;41.410;2.160;2022-09-02T05:40:33;27.83;;;7.77;;
5363;SDS011;2705;41.410;2.160;2022-09-02T05:43:07;22.03;;;8.40;;
5363;SDS011;2705;41.410;2.160;2022-09-02T05:45:36;19.73;;;7.87;;
5363;SDS011;2705;41.410;2.160;2022-09-02T05:48:08;12.83;;;6.63;;
5363;SDS011;2705;41.410;2.160;2022-09-02T05:50:51;13.50;;;7.03;;
5363;SDS011;2705;41.410;2.160;2022-09-02T05:53:24;19.93;;;8.47;;
5363;SDS011;2705;41.410;2.160;2022-09-02T05:55:53;18.10;;;7.93;;
5363;SDS011;2705;41.410;2.160;2022-09-02T05:58:23;19.83;;;9.37;;
5363;SDS011;2705;41.410;2.160;2022-09-02T06:00:53;28.93;;;8.20;;
5363;SDS011;2705;41.410;2.160;2022-09-02T06:03:24;23.00;;;8.10;;
5363;SDS011;2705;41.410;2.160;2022-09-02T06:05:53;17.53;;;7.27;;
5363;SDS011;2705;41.410;2.160;2022-09-02T06:08:25;16.00;;;7.37;;
5363;SDS011;2705;41.410;2.160;2022-09-02T06:10:54;18.30;;;7.30;;
5363;SDS011;2705;41.410;2.160;2022-09-02T06:13:25;22.30;;;9.13;;
5363;SDS011;2705;41.410;2.160;2022-09-02T06:15:55;14.53;;;7.10;;
5363;SDS011;2705;41.410;2.160;2022-09-02T06:18:30;13.20;;;7.63;;
5363;SDS011;2705;41.410;2.160;2022-09-02T06:21:01;14.40;;;7.53;;
5363;SDS011;2705;41.410;2.160;2022-09-02T06:23:36;23.63;;;8.27;;
5363;SDS011;2705;41.410;2.160;2022-09-02T06:26:09;19.00;;;8.00;;
5363;SDS011;2705;41.410;2.160;2022-09-02T06:28:39;29.63;;;8.40;;
5363;SDS011;2705;41.410;2.160;2022-09-02T06:31:10;25.30;;;8.37;;
5363;SDS011;2705;41.410;2.160;2022-09-02T06:33:43;23.90;;;7.63;;
5363;SDS011;2705;41.410;2.160;2022-09-02T06:36:16;22.10;;;8.70;;
5363;SDS011;2705;41.410;2.160;2022-09-02T06:38:47;21.40;;;7.30;;
5363;SDS011;2705;41.410;2.160;2022-09-02T06:41:19;19.17;;;8.30;;
5363;SDS011;2705;41.410;2.160;2022-09-02T06:43:53;18.17;;;7.00;;
5363;SDS011;2705;41.410;2.160;2022-09-02T06:46:25;19.27;;;8.00;;
5363;SDS011;2705;41.410;2.160;2022-09-02T06:49:00;25.17;;;7.87;;
5363;SDS011;2705;41.410;2.160;2022-09-02T06:51:30;16.60;;;7.17;;
5363;SDS011;2705;41.410;2.160;2022-09-02T06:54:02;13.13;;;6.47;;
5363;SDS011;2705;41.410;2.160;2022-09-02T06:56:35;22.07;;;7.43;;
5363;SDS011;2705;41.410;2.160;2022-09-02T06:59:06;27.17;;;7.40;;
5363;SDS011;2705;41.410;2.160;2022-09-02T07:01:47;24.00;;;8.00;;
5363;SDS011;2705;41.410;2.160;2022-09-02T07:04:21;29.67;;;10.80;;
5363;SDS011;2705;41.410;2.160;2022-09-02T07:07:12;24.30;;;10.53;;
5363;SDS011;2705;41.410;2.160;2022-09-02T07:09:49;28.23;;;12.27;;
5363;SDS011;2705;41.410;2.160;2022-09-02T07:12:18;26.67;;;9.67;;
5363;SDS011;2705;41.410;2.160;2022-09-02T07:14:53;20.20;;;7.63;;
5363;SDS011;2705;41.410;2.160;2022-09-02T07:17:35;24.53;;;7.53;;
5363;SDS011;2705;41.410;2.160;2022-09-02T07:20:13;18.23;;;8.40;;
5363;SDS011;2705;41.410;2.160;2022-09-02T07:22:48;23.03;;;10.87;;
5363;SDS011;2705;41.410;2.160;2022-09-02T07:25:25;28.67;;;8.03;;
5363;SDS011;2705;41.410;2.160;2022-09-02T07:27:54;32.07;;;10.73;;
5363;SDS011;2705;41.410;2.160;2022-09-02T07:30:24;20.60;;;8.40;;
5363;SDS011;2705;41.410;2.160;2022-09-02T07:33:03;28.83;;;8.13;;
5363;SDS011;2705;41.410;2.160;2022-09-02T07:35:34;21.80;;;7.90;;
5363;SDS011;2705;41.410;2.160;2022-09-02T07:38:06;21.07;;;8.50;;
5363;SDS011;2705;41.410;2.160;2022-09-02T07:40:36;14.23;;;6.33;;
5363;SDS011;2705;41.410;2.160;2022-09-02T07:43:08;20.93;;;7.83;;
5363;SDS011;2705;41.410;2.160;2022-09-02T07:45:39;20.73;;;6.50;;
5363;SDS011;2705;41.410;2.160;2022-09-02T07:48:10;22.30;;;6.10;;
5363;SDS011;2705;41.410;2.160;2022-09-02T07:50:42;22.83;;;6.60;;
5363;SDS011;2705;41.410;2.160;2022-09-02T07:53:16;13.50;;;5.80;;
5363;SDS011;2705;41.410;2.160;2022-09-02T07:55:47;18.80;;;6.47;;
5363;SDS011;2705;41.410;2.160;2022-09-02T07:58:16;24.03;;;6.33;;
5363;SDS011;2705;41.410;2.160;2022-09-02T08:00:48;17.07;;;5.87;;
5363;SDS011;2705;41.410;2.160;2022-09-02T08:03:18;25.20;;;5.60;;
5363;SDS011;2705;41.410;2.160;2022-09-02T08:05:53;22.23;;;5.80;;
5363;SDS011;2705;41.410;2.160;2022-09-02T08:08:23;21.20;;;6.13;;
5363;SDS011;2705;41.410;2.160;2022-09-02T08:10:54;23.97;;;5.70;;
5363;SDS011;2705;41.410;2.160;2022-09-02T08:13:24;24.47;;;11.50;;
5363;SDS011;2705;41.410;2.160;2022-09-02T08:15:53;27.50;;;8.17;;
5363;SDS011;2705;41.410;2.160;2022-09-02T08:18:23;15.03;;;6.80;;
5363;SDS011;2705;41.410;2.160;2022-09-02T08:20:54;28.23;;;8.60;;
5363;SDS011;2705;41.410;2.160;2022-09-02T08:23:23;17.27;;;6.40;;
5363;SDS011;2705;41.410;2.160;2022-09-02T08:26:02;17.73;;;6.47;;
5363;SDS011;2705;41.410;2.160;2022-09-02T08:28:32;23.33;;;6.63;;
5363;SDS011;2705;41.410;2.160;2022-09-02T08:31:05;23.67;;;7.33;;
5363;SDS011;2705;41.410;2.160;2022-09-02T08:33:34;25.77;;;9.70;;
5363;SDS011;2705;41.410;2.160;2022-09-02T08:36:05;37.40;;;7.93;;
5363;SDS011;2705;41.410;2.160;2022-09-02T08:38:37;19.90;;;7.30;;
5363;SDS011;2705;41.410;2.160;2022-09-02T08:41:16;24.10;;;7.67;;
5363;SDS011;2705;41.410;2.160;2022-09-02T08:43:49;19.03;;;6.67;;
5363;SDS011;2705;41.410;2.160;2022-09-02T08:46:20;24.60;;;7.10;;
5363;SDS011;2705;41.410;2.160;2022-09-02T08:48:53;22.13;;;6.87;;
5363;SDS011;2705;41.410;2.160;2022-09-02T08:51:28;33.90;;;7.83;;
5363;SDS011;2705;41.410;2.160;2022-09-02T08:54:04;25.40;;;6.20;;
5363;SDS011;2705;41.410;2.160;2022-09-02T08:56:37;24.67;;;7.40;;
5363;SDS011;2705;41.410;2.160;2022-09-02T08:59:07;22.60;;;6.30;;
5363;SDS011;2705;41.410;2.160;2022-09-02T09:01:41;22.60;;;7.40;;
5363;SDS011;2705;41.410;2.160;2022-09-02T09:04:16;21.23;;;6.20;;
5363;SDS011;2705;41.410;2.160;2022-09-02T09:06:59;41.27;;;16.17;;
5363;SDS011;2705;41.410;2.160;2022-09-02T09:09:45;19.53;;;5.50;;
5363;SDS011;2705;41.410;2.160;2022-09-02T09:12:25;22.10;;;6.90;;
5363;SDS011;2705;41.410;2.160;2022-09-02T09:15:02;25.63;;;7.53;;
5363;SDS011;2705;41.410;2.160;2022-09-02T09:17:37;27.50;;;7.27;;
5363;SDS011;2705;41.410;2.160;2022-09-02T09:20:15;22.03;;;6.13;;
5363;SDS011;2705;41.410;2.160;2022-09-02T09:22:48;29.63;;;6.67;;
5363;SDS011;2705;41.410;2.160;2022-09-02T09:25:18;22.33;;;6.40;;
5363;SDS011;2705;41.410;2.160;2022-09-02T09:27:47;20.90;;;5.77;;
5363;SDS011;2705;41.410;2.160;2022-09-02T09:30:16;35.63;;;7.70;;
5363;SDS011;2705;41.410;2.160;2022-09-02T09:32:46;21.93;;;8.40;;
5363;SDS011;2705;41.410;2.160;2022-09-02T09:35:20;25.40;;;9.40;;
5363;SDS011;2705;41.410;2.160;2022-09-02T09:37:52;18.13;;;7.40;;
5363;SDS011;2705;41.410;2.160;2022-09-02T09:40:26;21.53;;;6.70;;
5363;SDS011;2705;41.410;2.160;2022-09-02T09:42:58;21.93;;;7.00;;
5363;SDS011;2705;41.410;2.160;2022-09-02T09:45:41;18.57;;;5.80;;
5363;SDS011;2705;41.410;2.160;2022-09-02T09:48:19;26.37;;;5.47;;
5363;SDS011;2705;41.410;2.160;2022-09-02T09:51:09;23.40;;;5.10;;
5363;SDS011;2705;41.410;2.160;2022-09-02T09:53:46;25.70;;;6.37;;
5363;SDS011;2705;41.410;2.160;2022-09-02T09:56:29;21.87;;;5.67;;
5363;SDS011;2705;41.410;2.160;2022-09-02T09:59:05;18.20;;;4.73;;
5363;SDS011;2705;41.410;2.160;2022-09-02T10:01:36;26.60;;;5.73;;
5363;SDS011;2705;41.410;2.160;2022-09-02T10:04:06;19.10;;;4.37;;
5363;SDS011;2705;41.410;2.160;2022-09-02T10:06:57;20.33;;;5.33;;
5363;SDS011;2705;41.410;2.160;2022-09-02T10:09:32;20.73;;;4.83;;
5363;SDS011;2705;41.410;2.160;2022-09-02T10:12:03;20.10;;;5.20;;
5363;SDS011;2705;41.410;2.160;2022-09-02T10:14:37;29.70;;;4.40;;
5363;SDS011;2705;41.410;2.160;2022-09-02T10:17:12;23.20;;;5.33;;
5363;SDS011;2705;41.410;2.160;2022-09-02T10:19:53;15.17;;;4.70;;
5363;SDS011;2705;41.410;2.160;2022-09-02T10:25:43;23.40;;;5.40;;
5363;SDS011;2705;41.410;2.160;2022-09-02T10:28:24;23.83;;;8.70;;
5363;SDS011;2705;41.410;2.160;2022-09-02T10:31:05;15.00;;;5.37;;
5363;SDS011;2705;41.410;2.160;2022-09-02T10:33:41;26.17;;;6.53;;
5363;SDS011;2705;41.410;2.160;2022-09-02T10:36:19;15.23;;;4.70;;
5363;SDS011;2705;41.410;2.160;2022-09-02T10:38:58;25.70;;;4.80;;
5363;SDS011;2705;41.410;2.160;2022-09-02T10:41:38;17.50;;;5.53;;
5363;SDS011;2705;41.410;2.160;2022-09-02T10:44:21;21.43;;;5.60;;
5363;SDS011;2705;41.410;2.160;2022-09-02T10:46:57;17.17;;;5.90;;
5363;SDS011;2705;41.410;2.160;2022-09-02T10:49:32;13.97;;;6.03;;
5363;SDS011;2705;41.410;2.160;2022-09-02T10:52:24;19.07;;;6.60;;
5363;SDS011;2705;41.410;2.160;2022-09-02T10:55:07;19.87;;;6.23;;
5363;SDS011;2705;41.410;2.160;2022-09-02T10:57:46;20.30;;;5.67;;
5363;SDS011;2705;41.410;2.160;2022-09-02T11:00:21;20.57;;;5.07;;
5363;SDS011;2705;41.410;2.160;2022-09-02T11:02:52;14.83;;;5.87;;
5363;SDS011;2705;41.410;2.160;2022-09-02T11:05:26;17.73;;;6.90;;
5363;SDS011;2705;41.410;2.160;2022-09-02T11:07:59;17.47;;;7.10;;
5363;SDS011;2705;41.410;2.160;2022-09-02T11:10:36;23.40;;;6.17;;
5363;SDS011;2705;41.410;2.160;2022-09-02T11:13:11;17.27;;;6.07;;
5363;SDS011;2705;41.410;2.160;2022-09-02T11:15:46;14.83;;;5.43;;
5363;SDS011;2705;41.410;2.160;2022-09-02T11:18:21;13.10;;;5.50;;
5363;SDS011;2705;41.410;2.160;2022-09-02T11:20:54;12.27;;;6.27;;
5363;SDS011;2705;41.410;2.160;2022-09-02T11:23:33;15.00;;;5.90;;
5363;SDS011;2705;41.410;2.160;2022-09-02T11:26:06;18.57;;;6.60;;
5363;SDS011;2705;41.410;2.160;2022-09-02T11:28:42;14.30;;;7.30;;
5363;SDS011;2705;41.410;2.160;2022-09-02T11:31:21;15.03;;;7.20;;
5363;SDS011;2705;41.410;2.160;2022-09-02T11:33:55;17.90;;;6.90;;
5363;SDS011;2705;41.410;2.160;2022-09-02T11:36:36;19.47;;;7.37;;
5363;SDS011;2705;41.410;2.160;2022-09-02T11:39:07;21.87;;;6.57;;
5363;SDS011;2705;41.410;2.160;2022-09-02T11:41:59;25.20;;;6.90;;
5363;SDS011;2705;41.410;2.160;2022-09-02T11:44:59;28.57;;;9.17;;
5363;SDS011;2705;41.410;2.160;2022-09-02T11:47:49;16.73;;;6.90;;
5363;SDS011;2705;41.410;2.160;2022-09-02T11:50:42;28.43;;;9.70;;
5363;SDS011;2705;41.410;2.160;2022-09-02T11:53:29;18.27;;;7.00;;
5363;SDS011;2705;41.410;2.160;2022-09-02T11:56:03;24.43;;;7.27;;
5363;SDS011;2705;41.410;2.160;2022-09-02T11:58:42;19.47;;;8.77;;
5363;SDS011;2705;41.410;2.160;2022-09-02T12:04:02;19.53;;;8.20;;
5363;SDS011;2705;41.410;2.160;2022-09-02T12:09:59;13.70;;;6.17;;
5363;SDS011;2705;41.410;2.160;2022-09-02T12:15:35;16.27;;;5.90;;
5363;SDS011;2705;41.410;2.160;2022-09-02T12:18:25;12.10;;;5.43;;
5363;SDS011;2705;41.410;2.160;2022-09-02T12:21:07;22.27;;;6.57;;
5363;SDS011;2705;41.410;2.160;2022-09-02T12:24:02;19.13;;;5.80;;
5363;SDS011;2705;41.410;2.160;2022-09-02T12:29:35;18.33;;;7.37;;
5363;SDS011;2705;41.410;2.160;2022-09-02T12:32:05;18.40;;;6.90;;
5363;SDS011;2705;41.410;2.160;2022-09-02T12:34:54;26.10;;;6.80;;
5363;SDS011;2705;41.410;2.160;2022-09-02T12:40:23;26.27;;;9.10;;
5363;SDS011;2705;41.410;2.160;2022-09-02T12:42:58;21.10;;;7.07;;
5363;SDS011;2705;41.410;2.160;2022-09-02T12:45:33;20.80;;;6.40;;
5363;SDS011;2705;41.410;2.160;2022-09-02T12:48:12;18.07;;;6.40;;
5363;SDS011;2705;41.410;2.160;2022-09-02T12:50:53;19.03;;;6.03;;
5363;SDS011;2705;41.410;2.160;2022-09-02T12:53:25;20.07;;;6.97;;
5363;SDS011;2705;41.410;2.160;2022-09-02T12:56:00;19.63;;;5.97;;
5363;SDS011;2705;41.410;2.160;2022-09-02T12:58:33;18.50;;;5.67;;
5363;SDS011;2705;41.410;2.160;2022-09-02T13:01:11;20.37;;;5.93;;
5363;SDS011;2705;41.410;2.160;2022-09-02T13:03:57;20.07;;;6.07;;
5363;SDS011;2705;41.410;2.160;2022-09-02T13:13:01;21.83;;;6.93;;
5363;SDS011;2705;41.410;2.160;2022-09-02T13:16:07;24.60;;;7.37;;
5363;SDS011;2705;41.410;2.160;2022-09-02T13:18:55;18.67;;;5.80;;
5363;SDS011;2705;41.410;2.160;2022-09-02T13:21:49;22.00;;;6.40;;
5363;SDS011;2705;41.410;2.160;2022-09-02T13:24:38;17.83;;;6.20;;
5363;SDS011;2705;41.410;2.160;2022-09-02T13:27:40;16.33;;;5.40;;
5363;SDS011;2705;41.410;2.160;2022-09-02T13:30:50;27.07;;;6.57;;
5363;SDS011;2705;41.410;2.160;2022-09-02T13:33:31;16.33;;;5.67;;
5363;SDS011;2705;41.410;2.160;2022-09-02T13:36:06;23.23;;;5.73;;
5363;SDS011;2705;41.410;2.160;2022-09-02T13:38:36;19.10;;;6.00;;
5363;SDS011;2705;41.410;2.160;2022-09-02T13:41:06;30.77;;;5.90;;
5363;SDS011;2705;41.410;2.160;2022-09-02T13:43:36;27.73;;;6.17;;
5363;SDS011;2705;41.410;2.160;2022-09-02T13:46:05;24.50;;;6.40;;
5363;SDS011;2705;41.410;2.160;2022-09-02T13:48:36;23.23;;;5.40;;
5363;SDS011;2705;41.410;2.160;2022-09-02T13:51:10;27.77;;;5.93;;
5363;SDS011;2705;41.410;2.160;2022-09-02T13:53:41;19.20;;;6.10;;
5363;SDS011;2705;41.410;2.160;2022-09-02T13:56:33;22.47;;;7.53;;
5363;SDS011;2705;41.410;2.160;2022-09-02T13:59:04;29.60;;;7.10;;
5363;SDS011;2705;41.410;2.160;2022-09-02T14:01:34;20.33;;;5.37;;
5363;SDS011;2705;41.410;2.160;2022-09-02T14:04:08;18.57;;;5.73;;
5363;SDS011;2705;41.410;2.160;2022-09-02T14:06:43;22.70;;;5.87;;
5363;SDS011;2705;41.410;2.160;2022-09-02T14:09:17;16.87;;;5.93;;
5363;SDS011;2705;41.410;2.160;2022-09-02T14:11:49;22.83;;;6.57;;
5363;SDS011;2705;41.410;2.160;2022-09-02T14:14:22;30.60;;;7.97;;
5363;SDS011;2705;41.410;2.160;2022-09-02T14:16:52;19.97;;;5.73;;
5363;SDS011;2705;41.410;2.160;2022-09-02T14:19:44;27.23;;;5.73;;
5363;SDS011;2705;41.410;2.160;2022-09-02T14:22:22;30.67;;;6.77;;
5363;SDS011;2705;41.410;2.160;2022-09-02T14:24:54;25.00;;;6.47;;
5363;SDS011;2705;41.410;2.160;2022-09-02T14:27:23;23.20;;;6.90;;
5363;SDS011;2705;41.410;2.160;2022-09-02T14:29:55;23.63;;;6.23;;
5363;SDS011;2705;41.410;2.160;2022-09-02T14:32:26;20.37;;;6.93;;
5363;SDS011;2705;41.410;2.160;2022-09-02T14:55:50;20.67;;;6.15;;
5363;SDS011;2705;41.410;2.160;2022-09-02T14:58:21;17.70;;;6.07;;
5363;SDS011;2705;41.410;2.160;2022-09-02T15:00:54;16.83;;;6.80;;
5363;SDS011;2705;41.410;2.160;2022-09-02T15:03:26;19.13;;;6.60;;
5363;SDS011;2705;41.410;2.160;2022-09-02T15:05:56;23.60;;;7.40;;
5363;SDS011;2705;41.410;2.160;2022-09-02T15:08:25;30.83;;;6.50;;
5363;SDS011;2705;41.410;2.160;2022-09-02T15:10:58;29.63;;;6.67;;
5363;SDS011;2705;41.410;2.160;2022-09-02T15:13:28;32.30;;;7.50;;
5363;SDS011;2705;41.410;2.160;2022-09-02T15:16:00;20.53;;;5.17;;
5363;SDS011;2705;41.410;2.160;2022-09-02T15:18:29;21.17;;;6.80;;
5363;SDS011;2705;41.410;2.160;2022-09-02T15:20:58;26.50;;;7.53;;
5363;SDS011;2705;41.410;2.160;2022-09-02T15:23:29;19.47;;;7.80;;
5363;SDS011;2705;41.410;2.160;2022-09-02T15:26:03;18.33;;;7.17;;
5363;SDS011;2705;41.410;2.160;2022-09-02T15:28:32;29.53;;;7.50;;
5363;SDS011;2705;41.410;2.160;2022-09-02T15:31:01;25.27;;;7.10;;
5363;SDS011;2705;41.410;2.160;2022-09-02T15:33:30;26.40;;;6.43;;
5363;SDS011;2705;41.410;2.160;2022-09-02T15:36:06;29.83;;;6.37;;
5363;SDS011;2705;41.410;2.160;2022-09-02T15:38:36;26.23;;;6.03;;
5363;SDS011;2705;41.410;2.160;2022-09-02T15:41:12;35.50;;;8.50;;
5363;SDS011;2705;41.410;2.160;2022-09-02T15:43:43;33.33;;;6.93;;
5363;SDS011;2705;41.410;2.160;2022-09-02T15:46:18;29.80;;;7.50;;
5363;SDS011;2705;41.410;2.160;2022-09-02T15:48:50;32.50;;;6.73;;
5363;SDS011;2705;41.410;2.160;2022-09-02T15:51:24;29.67;;;6.30;;
5363;SDS011;2705;41.410;2.160;2022-09-02T15:53:54;35.60;;;7.20;;
5363;SDS011;2705;41.410;2.160;2022-09-02T15:56:25;37.90;;;7.50;;
5363;SDS011;2705;41.410;2.160;2022-09-02T15:58:56;30.27;;;6.77;;
5363;SDS011;2705;41.410;2.160;2022-09-02T16:01:28;25.57;;;7.20;;
5363;SDS011;2705;41.410;2.160;2022-09-02T16:03:58;42.83;;;7.00;;
5363;SDS011;2705;41.410;2.160;2022-09-02T16:06:29;31.77;;;6.70;;
5363;SDS011;2705;41.410;2.160;2022-09-02T16:08:59;43.73;;;6.40;;
5363;SDS011;2705;41.410;2.160;2022-09-02T16:11:29;33.50;;;6.83;;
5363;SDS011;2705;41.410;2.160;2022-09-02T16:13:59;24.83;;;6.47;;
5363;SDS011;2705;41.410;2.160;2022-09-02T16:16:28;31.83;;;7.60;;
5363;SDS011;2705;41.410;2.160;2022-09-02T16:18:58;22.20;;;6.23;;
5363;SDS011;2705;41.410;2.160;2022-09-02T16:21:28;29.80;;;6.40;;
5363;SDS011;2705;41.410;2.160;2022-09-02T16:23:57;27.97;;;6.50;;